Airfield :







YOU CAN JOIN US ON...

 
LOGIN :

Register | Disclaimer

   EN    FR    IT 

 









Legend :    VFR   Marginal VFR   IFR   Intensive IFR   Very Intensive IFR
Visi :
Ceiling :
>= 8 km
>= 3000ft
5 to 8 km
1000 to 3000 ft
1500m to 5 km
500 to 1000 ft
800 to 1500m
200 to 500 ft
< 800m
< 200 ft
Symbols :   Thunderstorms  Fog  Heavy snow  Heavy precipitations  Wind > 20 kt






- Airport Elevation : 522 ft
- IATA code : YBG


CYBG - CFB Bagotville

CURRENT METAR :
  • 212200Z 26005KT 25SM FEW040 SCT250 08/05 A3022 RMK SC2CI1 SLP242

EXPIRED METARs :
  • 212100Z 27007KT 25SM FEW045 11/05 A3021 RMK SC2 SLP238
  • 212000Z 28009KT 25SM BKN045 11/05 A3019 RMK SC7 SLP230

TAF TAF CYBG
Valid from the 21 at 21:00 until the 22 at 18:00 UTC


212030Z 2121/2218 28008KT P6SM BKN040
BECMG 2122/2124 VRB03KT
FM220200 VRB03KT P6SM FEW040 SCT250
PROB30 2205/2209 1SM BR BKN004
FM220900 09010KT P6SM OVC200
BECMG 2213/2215 09018KT RMK NXT FCST BY 220000Z



MET'MAP, your aeronautical weather chart ! - Copyright ORBIFLY December 2007 - Disclaimer

ORBIFLY MET'MAP TEAM :

Programming & Development : Alexandra Zaïnal
Concept & Development : Baudouin d'Aumeries
Co-Development & Prog : Marc-Olivier Méhu
Technical & hardware support : Manuel Goepfert

Contact : metmap@orbifly.com




SOURCES & CREDITS :

   NOAA